sensor_id;sensor_type;location;lat;lon;timestamp;temperature;humidity
14521;DHT22;7347;50.844;4.490;2023-11-21T08:49:58;12.00;99.90
14521;DHT22;7347;50.844;4.490;2023-11-21T08:52:25;12.10;99.90
14521;DHT22;7347;50.844;4.490;2023-11-21T08:54:52;12.30;99.90
14521;DHT22;7347;50.844;4.490;2023-11-21T08:57:21;12.30;99.90
14521;DHT22;7347;50.844;4.490;2023-11-21T08:59:48;12.30;99.90
14521;DHT22;7347;50.844;4.490;2023-11-21T09:02:20;12.20;99.90
14521;DHT22;7347;50.844;4.490;2023-11-21T09:04:48;12.20;99.90
14521;DHT22;7347;50.844;4.490;2023-11-21T09:07:17;12.30;99.90
14521;DHT22;7347;50.844;4.490;2023-11-21T09:09:46;12.30;99.90
14521;DHT22;7347;50.844;4.490;2023-11-21T09:12:13;12.30;99.90
14521;DHT22;7347;50.844;4.490;2023-11-21T09:14:40;12.30;99.90
14521;DHT22;7347;50.844;4.490;2023-11-21T09:17:09;12.30;99.90
14521;DHT22;7347;50.844;4.490;2023-11-21T09:19:37;12.30;99.90
14521;DHT22;7347;50.844;4.490;2023-11-21T09:22:04;12.20;99.90
14521;DHT22;7347;50.844;4.490;2023-11-21T09:24:33;12.30;99.90
14521;DHT22;7347;50.844;4.490;2023-11-21T09:27:00;12.40;99.90
14521;DHT22;7347;50.844;4.490;2023-11-21T09:29:27;12.40;99.90
14521;DHT22;7347;50.844;4.490;2023-11-21T09:31:54;12.40;99.90
14521;DHT22;7347;50.844;4.490;2023-11-21T09:34:25;12.40;99.90
14521;DHT22;7347;50.844;4.490;2023-11-21T09:36:52;12.20;99.90
14521;DHT22;7347;50.844;4.490;2023-11-21T09:39:19;12.30;99.90
14521;DHT22;7347;50.844;4.490;2023-11-21T09:41:51;12.40;99.90
14521;DHT22;7347;50.844;4.490;2023-11-21T09:44:22;12.40;99.90
14521;DHT22;7347;50.844;4.490;2023-11-21T09:46:54;12.40;99.90
14521;DHT22;7347;50.844;4.490;2023-11-21T09:49:26;12.50;99.90
14521;DHT22;7347;50.844;4.490;2023-11-21T09:51:55;12.30;99.90
14521;DHT22;7347;50.844;4.490;2023-11-21T09:54:22;12.30;99.90
14521;DHT22;7347;50.844;4.490;2023-11-21T09:56:51;12.40;99.90
14521;DHT22;7347;50.844;4.490;2023-11-21T09:59:18;12.50;99.90
14521;DHT22;7347;50.844;4.490;2023-11-21T10:01:46;12.50;99.90
14521;DHT22;7347;50.844;4.490;2023-11-21T10:04:13;12.50;99.90
14521;DHT22;7347;50.844;4.490;2023-11-21T10:06:41;12.50;99.90
14521;DHT22;7347;50.844;4.490;2023-11-21T10:09:10;12.60;99.90
14521;DHT22;7347;50.844;4.490;2023-11-21T10:11:40;12.60;99.90
14521;DHT22;7347;50.844;4.490;2023-11-21T10:14:10;12.50;99.90
14521;DHT22;7347;50.844;4.490;2023-11-21T10:16:40;12.60;99.90
14521;DHT22;7347;50.844;4.490;2023-11-21T10:19:10;12.50;99.90
14521;DHT22;7347;50.844;4.490;2023-11-21T10:21:39;12.40;99.90
14521;DHT22;7347;50.844;4.490;2023-11-21T10:24:07;12.40;99.90
14521;DHT22;7347;50.844;4.490;2023-11-21T10:26:34;12.20;99.90
14521;DHT22;7347;50.844;4.490;2023-11-21T10:29:03;12.30;99.90
14521;DHT22;7347;50.844;4.490;2023-11-21T10:31:31;12.20;99.90
14521;DHT22;7347;50.844;4.490;2023-11-21T10:34:13;12.20;99.90
14521;DHT22;7347;50.844;4.490;2023-11-21T10:36:39;12.30;99.90
14521;DHT22;7347;50.844;4.490;2023-11-21T10:39:06;12.40;99.90
14521;DHT22;7347;50.844;4.490;2023-11-21T10:41:35;12.40;99.90
14521;DHT22;7347;50.844;4.490;2023-11-21T10:44:02;12.50;99.90
14521;DHT22;7347;50.844;4.490;2023-11-21T10:46:33;12.50;99.90
14521;DHT22;7347;50.844;4.490;2023-11-21T10:49:00;12.60;99.90
14521;DHT22;7347;50.844;4.490;2023-11-21T10:51:27;12.80;99.90
14521;DHT22;7347;50.844;4.490;2023-11-21T10:53:56;12.90;99.90
14521;DHT22;7347;50.844;4.490;2023-11-21T10:56:26;13.00;99.90
14521;DHT22;7347;50.844;4.490;2023-11-21T10:58:56;13.00;99.90
14521;DHT22;7347;50.844;4.490;2023-11-21T11:01:26;12.90;99.90
14521;DHT22;7347;50.844;4.490;2023-11-21T11:03:56;13.00;99.90
14521;DHT22;7347;50.844;4.490;2023-11-21T11:06:24;13.20;99.90
14521;DHT22;7347;50.844;4.490;2023-11-21T11:08:53;13.20;99.90
14521;DHT22;7347;50.844;4.490;2023-11-21T11:11:20;13.20;99.90
14521;DHT22;7347;50.844;4.490;2023-11-21T11:13:47;13.40;99.90
14521;DHT22;7347;50.844;4.490;2023-11-21T11:16:15;13.40;99.90
14521;DHT22;7347;50.844;4.490;2023-11-21T11:18:43;13.40;99.90
14521;DHT22;7347;50.844;4.490;2023-11-21T11:21:27;13.30;99.90
14521;DHT22;7347;50.844;4.490;2023-11-21T11:27:05;13.20;99.90
14521;DHT22;7347;50.844;4.490;2023-11-21T11:29:41;13.20;99.90
14521;DHT22;7347;50.844;4.490;2023-11-21T11:32:16;13.10;99.90
14521;DHT22;7347;50.844;4.490;2023-11-21T11:34:52;13.00;99.90
14521;DHT22;7347;50.844;4.490;2023-11-21T11:37:24;13.00;99.90
14521;DHT22;7347;50.844;4.490;2023-11-21T11:39:51;13.10;99.90
14521;DHT22;7347;50.844;4.490;2023-11-21T11:42:21;13.10;99.90
14521;DHT22;7347;50.844;4.490;2023-11-21T11:44:51;13.20;99.90
14521;DHT22;7347;50.844;4.490;2023-11-21T11:47:21;13.20;99.90
14521;DHT22;7347;50.844;4.490;2023-11-21T11:50:05;13.10;99.90
14521;DHT22;7347;50.844;4.490;2023-11-21T11:52:41;13.20;99.90
14521;DHT22;7347;50.844;4.490;2023-11-21T11:55:10;13.30;99.90
14521;DHT22;7347;50.844;4.490;2023-11-21T11:57:37;13.30;99.90
14521;DHT22;7347;50.844;4.490;2023-11-21T12:00:23;13.50;99.90
14521;DHT22;7347;50.844;4.490;2023-11-21T12:03:03;13.50;99.90
14521;DHT22;7347;50.844;4.490;2023-11-21T12:05:31;13.60;99.90
14521;DHT22;7347;50.844;4.490;2023-11-21T12:08:03;13.40;99.90
14521;DHT22;7347;50.844;4.490;2023-11-21T12:10:33;13.40;99.90
14521;DHT22;7347;50.844;4.490;2023-11-21T12:13:01;13.40;99.90
14521;DHT22;7347;50.844;4.490;2023-11-21T12:15:28;13.40;99.90
14521;DHT22;7347;50.844;4.490;2023-11-21T12:17:57;13.40;99.90
14521;DHT22;7347;50.844;4.490;2023-11-21T12:20:25;13.40;99.90
14521;DHT22;7347;50.844;4.490;2023-11-21T12:22:54;13.40;99.90
14521;DHT22;7347;50.844;4.490;2023-11-21T12:25:23;13.40;99.90
14521;DHT22;7347;50.844;4.490;2023-11-21T12:27:54;13.40;99.90
14521;DHT22;7347;50.844;4.490;2023-11-21T12:30:22;13.40;99.90
14521;DHT22;7347;50.844;4.490;2023-11-21T12:32:50;13.30;99.90
14521;DHT22;7347;50.844;4.490;2023-11-21T12:35:18;13.20;99.90
14521;DHT22;7347;50.844;4.490;2023-11-21T12:37:45;13.00;99.90
14521;DHT22;7347;50.844;4.490;2023-11-21T12:40:15;13.00;99.90
14521;DHT22;7347;50.844;4.490;2023-11-21T12:42:45;13.00;99.90
14521;DHT22;7347;50.844;4.490;2023-11-21T12:45:21;13.00;99.90
14521;DHT22;7347;50.844;4.490;2023-11-21T12:47:51;12.90;99.90
14521;DHT22;7347;50.844;4.490;2023-11-21T12:50:22;13.00;99.90
14521;DHT22;7347;50.844;4.490;2023-11-21T12:52:52;13.00;99.90
14521;DHT22;7347;50.844;4.490;2023-11-21T12:55:20;13.00;99.90
14521;DHT22;7347;50.844;4.490;2023-11-21T12:57:50;13.00;99.90
14521;DHT22;7347;50.844;4.490;2023-11-21T13:00:20;13.00;99.90
14521;DHT22;7347;50.844;4.490;2023-11-21T13:02:54;13.00;99.90
14521;DHT22;7347;50.844;4.490;2023-11-21T13:05:29;13.00;99.90
14521;DHT22;7347;50.844;4.490;2023-11-21T13:07:59;13.20;99.90
14521;DHT22;7347;50.844;4.490;2023-11-21T13:10:30;13.20;99.90
14521;DHT22;7347;50.844;4.490;2023-11-21T13:12:59;13.10;99.90
14521;DHT22;7347;50.844;4.490;2023-11-21T13:15:27;13.10;99.90
14521;DHT22;7347;50.844;4.490;2023-11-21T13:17:54;13.10;99.90
14521;DHT22;7347;50.844;4.490;2023-11-21T13:20:22;13.00;99.90
14521;DHT22;7347;50.844;4.490;2023-11-21T13:22:50;12.90;99.90
14521;DHT22;7347;50.844;4.490;2023-11-21T13:25:21;12.90;99.90
14521;DHT22;7347;50.844;4.490;2023-11-21T13:27:48;12.70;99.90
14521;DHT22;7347;50.844;4.490;2023-11-21T13:30:17;12.60;99.90
14521;DHT22;7347;50.844;4.490;2023-11-21T13:32:48;12.60;99.90
14521;DHT22;7347;50.844;4.490;2023-11-21T13:35:16;12.50;99.90
14521;DHT22;7347;50.844;4.490;2023-11-21T13:37:48;12.40;99.90
14521;DHT22;7347;50.844;4.490;2023-11-21T13:40:20;12.40;99.90
14521;DHT22;7347;50.844;4.490;2023-11-21T13:42:49;12.50;99.90
14521;DHT22;7347;50.844;4.490;2023-11-21T13:45:20;12.50;99.90
14521;DHT22;7347;50.844;4.490;2023-11-21T13:47:49;12.50;99.90
14521;DHT22;7347;50.844;4.490;2023-11-21T13:50:17;12.60;99.90
14521;DHT22;7347;50.844;4.490;2023-11-21T13:52:48;12.60;99.90
14521;DHT22;7347;50.844;4.490;2023-11-21T13:55:17;12.50;99.90
14521;DHT22;7347;50.844;4.490;2023-11-21T13:57:44;12.50;99.90
14521;DHT22;7347;50.844;4.490;2023-11-21T14:00:15;12.50;99.90
14521;DHT22;7347;50.844;4.490;2023-11-21T14:03:07;12.60;99.90
14521;DHT22;7347;50.844;4.490;2023-11-21T14:05:43;12.70;99.90
14521;DHT22;7347;50.844;4.490;2023-11-21T14:08:10;12.60;99.90
14521;DHT22;7347;50.844;4.490;2023-11-21T14:10:42;12.60;99.90
14521;DHT22;7347;50.844;4.490;2023-11-21T14:13:10;12.50;99.90
14521;DHT22;7347;50.844;4.490;2023-11-21T14:15:39;12.50;99.90
14521;DHT22;7347;50.844;4.490;2023-11-21T14:18:10;12.50;99.90
14521;DHT22;7347;50.844;4.490;2023-11-21T14:20:38;12.40;99.90
14521;DHT22;7347;50.844;4.490;2023-11-21T14:23:05;12.40;99.90
14521;DHT22;7347;50.844;4.490;2023-11-21T14:25:33;12.30;99.90
14521;DHT22;7347;50.844;4.490;2023-11-21T14:28:02;12.40;99.90
14521;DHT22;7347;50.844;4.490;2023-11-21T14:30:30;12.40;99.90
14521;DHT22;7347;50.844;4.490;2023-11-21T14:32:57;12.40;99.90
14521;DHT22;7347;50.844;4.490;2023-11-21T14:35:25;12.40;99.90
14521;DHT22;7347;50.844;4.490;2023-11-21T14:37:53;12.30;99.90
14521;DHT22;7347;50.844;4.490;2023-11-21T14:40:21;12.30;99.90
14521;DHT22;7347;50.844;4.490;2023-11-21T14:42:50;12.20;99.90
14521;DHT22;7347;50.844;4.490;2023-11-21T14:45:19;12.20;99.90
14521;DHT22;7347;50.844;4.490;2023-11-21T14:47:48;12.20;99.90
14521;DHT22;7347;50.844;4.490;2023-11-21T14:50:22;12.20;99.90
14521;DHT22;7347;50.844;4.490;2023-11-21T14:53:16;12.10;99.90
14521;DHT22;7347;50.844;4.490;2023-11-21T14:56:04;12.10;99.90
14521;DHT22;7347;50.844;4.490;2023-11-21T14:58:30;11.90;99.90
14521;DHT22;7347;50.844;4.490;2023-11-21T15:00:57;11.90;99.90
14521;DHT22;7347;50.844;4.490;2023-11-21T15:03:24;11.80;99.90
14521;DHT22;7347;50.844;4.490;2023-11-21T15:06:09;11.70;99.90
14521;DHT22;7347;50.844;4.490;2023-11-21T15:08:49;11.60;99.90
14521;DHT22;7347;50.844;4.490;2023-11-21T15:11:20;11.60;99.90
14521;DHT22;7347;50.844;4.490;2023-11-21T15:13:50;11.70;99.90
14521;DHT22;7347;50.844;4.490;2023-11-21T15:16:18;11.70;99.90
14521;DHT22;7347;50.844;4.490;2023-11-21T15:18:45;11.80;99.90
14521;DHT22;7347;50.844;4.490;2023-11-21T15:21:12;11.70;99.90
14521;DHT22;7347;50.844;4.490;2023-11-21T15:23:38;11.70;99.90
14521;DHT22;7347;50.844;4.490;2023-11-21T15:26:08;11.70;99.90
14521;DHT22;7347;50.844;4.490;2023-11-21T15:28:36;11.70;99.90
14521;DHT22;7347;50.844;4.490;2023-11-21T15:31:03;11.70;99.90
14521;DHT22;7347;50.844;4.490;2023-11-21T15:33:30;11.60;99.90
14521;DHT22;7347;50.844;4.490;2023-11-21T15:35:57;11.50;99.90
14521;DHT22;7347;50.844;4.490;2023-11-21T15:38:24;11.50;99.90
14521;DHT22;7347;50.844;4.490;2023-11-21T15:40:51;11.50;99.90
14521;DHT22;7347;50.844;4.490;2023-11-21T15:43:19;11.60;99.90
14521;DHT22;7347;50.844;4.490;2023-11-21T15:45:46;11.50;99.90
14521;DHT22;7347;50.844;4.490;2023-11-21T15:48:13;11.60;99.90
14521;DHT22;7347;50.844;4.490;2023-11-21T15:50:42;11.60;99.90
14521;DHT22;7347;50.844;4.490;2023-11-21T15:53:09;11.60;99.90
14521;DHT22;7347;50.844;4.490;2023-11-21T15:55:36;11.60;99.90
14521;DHT22;7347;50.844;4.490;2023-11-21T15:58:08;11.40;99.90
14521;DHT22;7347;50.844;4.490;2023-11-21T16:00:36;11.40;99.90
14521;DHT22;7347;50.844;4.490;2023-11-21T16:03:03;11.40;99.90
14521;DHT22;7347;50.844;4.490;2023-11-21T16:05:29;11.40;99.90
14521;DHT22;7347;50.844;4.490;2023-11-21T16:07:56;11.40;99.90
14521;DHT22;7347;50.844;4.490;2023-11-21T16:10:23;11.40;99.90
14521;DHT22;7347;50.844;4.490;2023-11-21T16:12:50;11.40;99.90
14521;DHT22;7347;50.844;4.490;2023-11-21T16:15:17;11.40;99.90
14521;DHT22;7347;50.844;4.490;2023-11-21T16:17:46;11.50;99.90
14521;DHT22;7347;50.844;4.490;2023-11-21T16:20:13;11.50;99.90
14521;DHT22;7347;50.844;4.490;2023-11-21T16:22:41;11.40;99.90
14521;DHT22;7347;50.844;4.490;2023-11-21T16:25:08;11.40;99.90
14521;DHT22;7347;50.844;4.490;2023-11-21T16:27:36;11.40;99.90
14521;DHT22;7347;50.844;4.490;2023-11-21T16:30:04;11.40;99.90
14521;DHT22;7347;50.844;4.490;2023-11-21T16:32:32;11.40;99.90
14521;DHT22;7347;50.844;4.490;2023-11-21T16:35:02;11.40;99.90
14521;DHT22;7347;50.844;4.490;2023-11-21T16:37:29;11.40;99.90
14521;DHT22;7347;50.844;4.490;2023-11-21T16:39:57;11.30;99.90
14521;DHT22;7347;50.844;4.490;2023-11-21T16:42:24;11.20;99.90
14521;DHT22;7347;50.844;4.490;2023-11-21T16:44:53;11.20;99.90
14521;DHT22;7347;50.844;4.490;2023-11-21T16:47:20;11.20;99.90
14521;DHT22;7347;50.844;4.490;2023-11-21T16:49:48;11.20;99.90
14521;DHT22;7347;50.844;4.490;2023-11-21T16:52:17;11.20;99.90
14521;DHT22;7347;50.844;4.490;2023-11-21T16:54:47;11.10;99.90
14521;DHT22;7347;50.844;4.490;2023-11-21T16:57:15;11.10;99.90
14521;DHT22;7347;50.844;4.490;2023-11-21T16:59:42;11.10;99.90
14521;DHT22;7347;50.844;4.490;2023-11-21T17:02:09;11.10;99.90
14521;DHT22;7347;50.844;4.490;2023-11-21T17:04:36;11.20;99.90
14521;DHT22;7347;50.844;4.490;2023-11-21T17:07:06;11.20;99.90
14521;DHT22;7347;50.844;4.490;2023-11-21T17:09:35;11.30;99.90
14521;DHT22;7347;50.844;4.490;2023-11-21T17:12:02;11.30;99.90
14521;DHT22;7347;50.844;4.490;2023-11-21T17:14:31;11.30;99.90
14521;DHT22;7347;50.844;4.490;2023-11-21T17:16:58;11.20;99.90
14521;DHT22;7347;50.844;4.490;2023-11-21T17:19:25;11.20;99.90
14521;DHT22;7347;50.844;4.490;2023-11-21T17:21:57;11.10;99.90
14521;DHT22;7347;50.844;4.490;2023-11-21T17:24:24;11.10;99.90
14521;DHT22;7347;50.844;4.490;2023-11-21T17:26:52;11.10;99.90
14521;DHT22;7347;50.844;4.490;2023-11-21T17:29:19;11.20;99.90
14521;DHT22;7347;50.844;4.490;2023-11-21T17:31:46;11.20;99.90
14521;DHT22;7347;50.844;4.490;2023-11-21T17:34:13;11.20;99.90
14521;DHT22;7347;50.844;4.490;2023-11-21T17:36:44;11.30;99.90
14521;DHT22;7347;50.844;4.490;2023-11-21T17:39:11;11.30;99.90
14521;DHT22;7347;50.844;4.490;2023-11-21T17:41:38;11.30;99.90
14521;DHT22;7347;50.844;4.490;2023-11-21T17:44:07;11.20;99.90
14521;DHT22;7347;50.844;4.490;2023-11-21T17:46:34;11.20;99.90
14521;DHT22;7347;50.844;4.490;2023-11-21T17:49:01;11.20;99.90
14521;DHT22;7347;50.844;4.490;2023-11-21T17:51:28;11.20;99.90
14521;DHT22;7347;50.844;4.490;2023-11-21T17:53:55;11.20;99.90
14521;DHT22;7347;50.844;4.490;2023-11-21T17:56:26;11.10;99.90
14521;DHT22;7347;50.844;4.490;2023-11-21T17:58:54;11.00;99.90
14521;DHT22;7347;50.844;4.490;2023-11-21T18:01:23;11.00;99.90
14521;DHT22;7347;50.844;4.490;2023-11-21T18:03:56;11.00;99.90
14521;DHT22;7347;50.844;4.490;2023-11-21T18:06:23;11.10;99.90
14521;DHT22;7347;50.844;4.490;2023-11-21T18:08:50;11.10;99.90
14521;DHT22;7347;50.844;4.490;2023-11-21T18:11:17;11.10;99.90
14521;DHT22;7347;50.844;4.490;2023-11-21T18:13:44;11.10;99.90
14521;DHT22;7347;50.844;4.490;2023-11-21T18:16:11;11.10;99.90
14521;DHT22;7347;50.844;4.490;2023-11-21T18:18:39;11.00;99.90
14521;DHT22;7347;50.844;4.490;2023-11-21T18:21:06;11.00;99.90
14521;DHT22;7347;50.844;4.490;2023-11-21T18:23:33;10.90;99.90
14521;DHT22;7347;50.844;4.490;2023-11-21T18:26:00;10.90;99.90
14521;DHT22;7347;50.844;4.490;2023-11-21T18:28:27;10.90;99.90
14521;DHT22;7347;50.844;4.490;2023-11-21T18:30:54;10.80;99.90
14521;DHT22;7347;50.844;4.490;2023-11-21T18:33:21;10.90;99.90
14521;DHT22;7347;50.844;4.490;2023-11-21T18:35:49;10.80;99.90
14521;DHT22;7347;50.844;4.490;2023-11-21T18:38:16;10.80;99.90
14521;DHT22;7347;50.844;4.490;2023-11-21T18:40:43;10.80;99.90
14521;DHT22;7347;50.844;4.490;2023-11-21T18:43:10;10.70;99.90
14521;DHT22;7347;50.844;4.490;2023-11-21T18:45:37;10.60;99.90
14521;DHT22;7347;50.844;4.490;2023-11-21T18:48:04;10.70;99.90
14521;DHT22;7347;50.844;4.490;2023-11-21T18:50:31;10.60;99.90
14521;DHT22;7347;50.844;4.490;2023-11-21T18:52:59;10.60;99.90
14521;DHT22;7347;50.844;4.490;2023-11-21T18:55:26;10.60;99.90
14521;DHT22;7347;50.844;4.490;2023-11-21T18:57:53;10.70;99.90
14521;DHT22;7347;50.844;4.490;2023-11-21T19:00:20;10.80;99.90
14521;DHT22;7347;50.844;4.490;2023-11-21T19:02:47;10.90;99.90
14521;DHT22;7347;50.844;4.490;2023-11-21T19:05:14;10.90;99.90
14521;DHT22;7347;50.844;4.490;2023-11-21T19:07:41;10.90;99.90
14521;DHT22;7347;50.844;4.490;2023-11-21T19:10:10;10.80;99.90
14521;DHT22;7347;50.844;4.490;2023-11-21T19:12:37;10.80;99.90
14521;DHT22;7347;50.844;4.490;2023-11-21T19:15:06;10.70;99.90
14521;DHT22;7347;50.844;4.490;2023-11-21T19:17:34;10.70;99.90
14521;DHT22;7347;50.844;4.490;2023-11-21T19:20:01;10.70;99.90
14521;DHT22;7347;50.844;4.490;2023-11-21T19:22:29;10.60;99.90
14521;DHT22;7347;50.844;4.490;2023-11-21T19:24:56;10.60;99.90
14521;DHT22;7347;50.844;4.490;2023-11-21T19:27:24;10.60;99.90
14521;DHT22;7347;50.844;4.490;2023-11-21T19:29:50;10.60;99.90
14521;DHT22;7347;50.844;4.490;2023-11-21T19:32:17;10.40;99.90
14521;DHT22;7347;50.844;4.490;2023-11-21T19:34:43;10.40;99.90
14521;DHT22;7347;50.844;4.490;2023-11-21T19:37:10;10.40;99.90
14521;DHT22;7347;50.844;4.490;2023-11-21T19:39:37;10.20;99.90
14521;DHT22;7347;50.844;4.490;2023-11-21T19:42:05;10.20;99.90
14521;DHT22;7347;50.844;4.490;2023-11-21T19:44:33;10.30;99.90
14521;DHT22;7347;50.844;4.490;2023-11-21T19:47:02;10.30;99.90
14521;DHT22;7347;50.844;4.490;2023-11-21T19:49:29;10.20;99.90
14521;DHT22;7347;50.844;4.490;2023-11-21T19:51:55;10.20;99.90
14521;DHT22;7347;50.844;4.490;2023-11-21T19:54:22;10.20;99.90
14521;DHT22;7347;50.844;4.490;2023-11-21T19:56:49;10.10;99.90
14521;DHT22;7347;50.844;4.490;2023-11-21T19:59:16;9.90;99.90
14521;DHT22;7347;50.844;4.490;2023-11-21T20:01:44;9.80;99.90
14521;DHT22;7347;50.844;4.490;2023-11-21T20:04:11;9.80;99.90
14521;DHT22;7347;50.844;4.490;2023-11-21T20:06:39;9.60;99.90
14521;DHT22;7347;50.844;4.490;2023-11-21T20:09:05;9.50;99.90
14521;DHT22;7347;50.844;4.490;2023-11-21T20:11:31;9.40;99.90
14521;DHT22;7347;50.844;4.490;2023-11-21T20:13:58;9.40;99.90
14521;DHT22;7347;50.844;4.490;2023-11-21T20:16:26;9.60;99.90
14521;DHT22;7347;50.844;4.490;2023-11-21T20:18:54;9.50;99.90
14521;DHT22;7347;50.844;4.490;2023-11-21T20:21:21;9.60;99.90
14521;DHT22;7347;50.844;4.490;2023-11-21T20:23:48;9.40;99.90
14521;DHT22;7347;50.844;4.490;2023-11-21T20:26:20;9.40;99.90
14521;DHT22;7347;50.844;4.490;2023-11-21T20:28:47;9.40;99.90
14521;DHT22;7347;50.844;4.490;2023-11-21T20:31:15;9.50;99.90
14521;DHT22;7347;50.844;4.490;2023-11-21T20:33:42;9.50;99.90
14521;DHT22;7347;50.844;4.490;2023-11-21T20:36:10;9.40;99.90
14521;DHT22;7347;50.844;4.490;2023-11-21T20:38:37;9.30;99.90
14521;DHT22;7347;50.844;4.490;2023-11-21T20:41:04;9.40;99.90
14521;DHT22;7347;50.844;4.490;2023-11-21T20:43:32;9.40;99.90
14521;DHT22;7347;50.844;4.490;2023-11-21T20:45:58;9.20;99.90
14521;DHT22;7347;50.844;4.490;2023-11-21T20:48:25;9.00;99.90
14521;DHT22;7347;50.844;4.490;2023-11-21T20:50:54;8.90;99.90
14521;DHT22;7347;50.844;4.490;2023-11-21T20:53:23;8.60;99.90
14521;DHT22;7347;50.844;4.490;2023-11-21T20:55:50;8.50;99.90
14521;DHT22;7347;50.844;4.490;2023-11-21T20:58:18;8.50;99.90
14521;DHT22;7347;50.844;4.490;2023-11-21T21:00:45;8.50;99.90
14521;DHT22;7347;50.844;4.490;2023-11-21T21:03:12;8.50;99.90
14521;DHT22;7347;50.844;4.490;2023-11-21T21:05:40;8.50;99.90
14521;DHT22;7347;50.844;4.490;2023-11-21T21:08:07;8.70;99.90
14521;DHT22;7347;50.844;4.490;2023-11-21T21:10:35;8.80;99.90
14521;DHT22;7347;50.844;4.490;2023-11-21T21:13:02;8.80;99.90
14521;DHT22;7347;50.844;4.490;2023-11-21T21:15:29;8.50;99.90
14521;DHT22;7347;50.844;4.490;2023-11-21T21:17:56;8.50;99.90
14521;DHT22;7347;50.844;4.490;2023-11-21T21:20:23;8.40;99.90
14521;DHT22;7347;50.844;4.490;2023-11-21T21:22:50;8.30;99.90
14521;DHT22;7347;50.844;4.490;2023-11-21T21:25:18;8.20;99.90
14521;DHT22;7347;50.844;4.490;2023-11-21T21:27:46;8.10;99.90
14521;DHT22;7347;50.844;4.490;2023-11-21T21:30:14;8.00;99.90
14521;DHT22;7347;50.844;4.490;2023-11-21T21:32:41;8.00;99.90
